OB1979 SPJE-SPGM
Flight info
| Callsign | OB1979 |
|---|---|
| Flight time | 2h 11m |
| Altitude | 9500 |
| Route | 054917S0784237W 055642S0783947W 060401S0783544W 060433S0783021W 061011S0782622W 061452S0782224W 061702S0782142W 062113S0781943W 062405S0781505W 062746S0781123W 063014S0780903W 063351S0780802W 063858S0780554W 064046S0780311W 064425S0780212W 064945S0780051W 065300S0780003W 065613S0780017W 070029S0775911W 070357S0775703W 070941S0775455W 071426S0775142W 072257S0774917W 072850S0774414W 073527S0774153W DCT SPGL DCT 075311S0773732W 080257S0773858W 080447S0773725W 080735S0773739W 081104S0773355W 081348S0773419W 081458S0773154W 081614S0773143W 081710S0772921W 082026S0772748W 082531S0772614W 082637S0772425W 082905S0772355W 083225S0771853W 083546S0771716W 083830S0771726W 083938S0771537W 084412S0771428W 085604S0770909W 085741S0770651W 090009S0770216W 090323S0765848W 090524S0765422W 090715S0765006W 090823S0764727W 090928S0764603W 091101S0764532W/N0155F125 091233S0764407W 091520S0764337W 091660S0764430W 091712S0764247W 091910S0764044W DCT 092052S0763702W 091848S0763146W 091651S0762434W 091252S0761621W 091217S0760825W 091355S0760255W DCT 091538S0760008W |
| Aircraft | PA24/L-SDGRY/S |
Departure
| Time | 2026-05-06 17:49 |
|---|---|
| Airport | Shumba Airport (SPJE) |
Arrival
| Time | 2026-05-06 20:00 |
|---|---|
| Airport | Tingo Maria Airport (SPGM) |
| Time | Latitude | Longitude | Altitude | Speed | Heading |
|---|---|---|---|---|---|
| 2026-05-06 17:38 | -5.58209 | -78.77607 | 2459 ft | 0 kts | 67° |
| 2026-05-06 17:41 | -5.58205 | -78.77605 | 2459 ft | 4 kts | 341° |
| 2026-05-06 17:41 | -5.58216 | -78.77659 | 2458 ft | 0 kts | 245° |
| 2026-05-06 17:47 | -5.58226 | -78.77679 | 2456 ft | 13 kts | 247° |
| 2026-05-06 17:47 | -5.58254 | -78.77722 | 2455 ft | 0 kts | 161° |
| 2026-05-06 17:48 | -5.58259 | -78.77720 | 2455 ft | 9 kts | 162° |
| 2026-05-06 17:48 | -5.58566 | -78.77628 | 2463 ft | 74 kts | 163° |
| 2026-05-06 17:48 | -5.59100 | -78.77475 | 2616 ft | 83 kts | 164° |
| 2026-05-06 17:48 | -5.59694 | -78.77302 | 2804 ft | 94 kts | 162° |
| 2026-05-06 17:49 | -5.60320 | -78.77122 | 3109 ft | 96 kts | 162° |
| 2026-05-06 17:49 | -5.60974 | -78.76889 | 3357 ft | 102 kts | 158° |
| 2026-05-06 17:49 | -5.61668 | -78.76663 | 3577 ft | 109 kts | 161° |
| 2026-05-06 17:49 | -5.62434 | -78.76452 | 3780 ft | 116 kts | 162° |
| 2026-05-06 17:50 | -5.63208 | -78.76213 | 3978 ft | 118 kts | 159° |
| 2026-05-06 17:50 | -5.64014 | -78.75998 | 4203 ft | 120 kts | 163° |
| 2026-05-06 17:50 | -5.64822 | -78.75796 | 4429 ft | 120 kts | 166° |
| 2026-05-06 17:50 | -5.65655 | -78.75630 | 4695 ft | 122 kts | 166° |
| 2026-05-06 17:51 | -5.66472 | -78.75404 | 4943 ft | 122 kts | 158° |
| 2026-05-06 17:51 | -5.67280 | -78.75156 | 5157 ft | 124 kts | 162° |
| 2026-05-06 17:51 | -5.68123 | -78.74961 | 5390 ft | 126 kts | 167° |
| 2026-05-06 17:51 | -5.68979 | -78.74753 | 5596 ft | 127 kts | 160° |
| 2026-05-06 17:52 | -5.69822 | -78.74491 | 5835 ft | 126 kts | 161° |
| 2026-05-06 17:52 | -5.70668 | -78.74242 | 6097 ft | 128 kts | 163° |
| 2026-05-06 17:52 | -5.71518 | -78.73991 | 6338 ft | 130 kts | 160° |
| 2026-05-06 17:52 | -5.72382 | -78.73742 | 6584 ft | 129 kts | 161° |
| 2026-05-06 17:53 | -5.73245 | -78.73498 | 6807 ft | 130 kts | 165° |
| 2026-05-06 17:53 | -5.74139 | -78.73315 | 7035 ft | 130 kts | 165° |
| 2026-05-06 17:53 | -5.75013 | -78.73098 | 7271 ft | 129 kts | 163° |
| 2026-05-06 17:53 | -5.75899 | -78.72919 | 7484 ft | 129 kts | 166° |
| 2026-05-06 17:54 | -5.76762 | -78.72727 | 7713 ft | 128 kts | 162° |
| 2026-05-06 17:54 | -5.77625 | -78.72497 | 7917 ft | 129 kts | 161° |
| 2026-05-06 17:54 | -5.78466 | -78.72207 | 8128 ft | 127 kts | 153° |
| 2026-05-06 17:54 | -5.79293 | -78.71885 | 8327 ft | 127 kts | 152° |
| 2026-05-06 17:55 | -5.80112 | -78.71584 | 8523 ft | 125 kts | 158° |
| 2026-05-06 17:55 | -5.80943 | -78.71321 | 8705 ft | 125 kts | 159° |
| 2026-05-06 17:55 | -5.81790 | -78.71081 | 8902 ft | 127 kts | 159° |
| 2026-05-06 17:55 | -5.82641 | -78.70844 | 9104 ft | 127 kts | 160° |
| 2026-05-06 17:56 | -5.83493 | -78.70650 | 9292 ft | 128 kts | 163° |
| 2026-05-06 17:56 | -5.84370 | -78.70486 | 9484 ft | 128 kts | 162° |
| 2026-05-06 17:56 | -5.85266 | -78.70274 | 9556 ft | 138 kts | 159° |
| 2026-05-06 17:56 | -5.86221 | -78.69982 | 9572 ft | 146 kts | 156° |
| 2026-05-06 17:57 | -5.87181 | -78.69647 | 9697 ft | 143 kts | 156° |
| 2026-05-06 17:57 | -5.88143 | -78.69310 | 9572 ft | 157 kts | 154° |
| 2026-05-06 17:57 | -5.89179 | -78.68885 | 9502 ft | 161 kts | 153° |
| 2026-05-06 17:57 | -5.90206 | -78.68441 | 9490 ft | 161 kts | 152° |
| 2026-05-06 17:58 | -5.91228 | -78.67976 | 9471 ft | 160 kts | 152° |
| 2026-05-06 17:58 | -5.92239 | -78.67513 | 9492 ft | 158 kts | 151° |
| 2026-05-06 17:58 | -5.93234 | -78.67066 | 9500 ft | 159 kts | 152° |
| 2026-05-06 17:58 | -5.94247 | -78.66612 | 9513 ft | 159 kts | 152° |
| 2026-05-06 17:59 | -5.95259 | -78.66165 | 9524 ft | 158 kts | 153° |
| 2026-05-06 17:59 | -5.96262 | -78.65729 | 9540 ft | 157 kts | 150° |
| 2026-05-06 17:59 | -5.97246 | -78.65231 | 9522 ft | 159 kts | 148° |
| 2026-05-06 17:59 | -5.98197 | -78.64711 | 9585 ft | 156 kts | 146° |
| 2026-05-06 18:00 | -5.99150 | -78.64152 | 9529 ft | 161 kts | 146° |
| 2026-05-06 18:00 | -6.00114 | -78.63592 | 9580 ft | 158 kts | 144° |
| 2026-05-06 18:00 | -6.01050 | -78.63011 | 9584 ft | 158 kts | 142° |
| 2026-05-06 18:00 | -6.01965 | -78.62405 | 9611 ft | 156 kts | 143° |
| 2026-05-06 18:01 | -6.02895 | -78.61819 | 9531 ft | 163 kts | 144° |
| 2026-05-06 18:01 | -6.03843 | -78.61211 | 9600 ft | 155 kts | 142° |
| 2026-05-06 18:01 | -6.04745 | -78.60597 | 9546 ft | 161 kts | 138° |
| 2026-05-06 18:01 | -6.05607 | -78.59892 | 9499 ft | 161 kts | 136° |
| 2026-05-06 18:02 | -6.06462 | -78.59179 | 9524 ft | 158 kts | 133° |
| 2026-05-06 18:02 | -6.07062 | -78.58286 | 9551 ft | 153 kts | 106° |
| 2026-05-06 18:02 | -6.07303 | -78.57261 | 9561 ft | 151 kts | 96° |
| 2026-05-06 18:02 | -6.07424 | -78.56198 | 9522 ft | 153 kts | 94° |
| 2026-05-06 18:03 | -6.07479 | -78.55141 | 9541 ft | 150 kts | 88° |
| 2026-05-06 18:03 | -6.07357 | -78.54111 | 9513 ft | 153 kts | 80° |
| 2026-05-06 18:03 | -6.07278 | -78.53075 | 9629 ft | 145 kts | 91° |
| 2026-05-06 18:03 | -6.07428 | -78.52056 | 9540 ft | 152 kts | 103° |
| 2026-05-06 18:04 | -6.07754 | -78.51039 | 9581 ft | 151 kts | 109° |
| 2026-05-06 18:04 | -6.08127 | -78.50059 | 9555 ft | 152 kts | 105° |
| 2026-05-06 18:04 | -6.08501 | -78.49055 | 9531 ft | 152 kts | 111° |
| 2026-05-06 18:04 | -6.08958 | -78.48114 | 9549 ft | 149 kts | 118° |
| 2026-05-06 18:05 | -6.09634 | -78.47311 | 9503 ft | 153 kts | 133° |
| 2026-05-06 18:05 | -6.10436 | -78.46614 | 9497 ft | 151 kts | 139° |
| 2026-05-06 18:05 | -6.11273 | -78.45981 | 9473 ft | 152 kts | 138° |
| 2026-05-06 18:05 | -6.12201 | -78.45431 | 9405 ft | 158 kts | 153° |
| 2026-05-06 18:06 | -6.13188 | -78.44981 | 9499 ft | 154 kts | 152° |
| 2026-05-06 18:06 | -6.14172 | -78.44542 | 9488 ft | 156 kts | 150° |
| 2026-05-06 18:06 | -6.15119 | -78.44000 | 9495 ft | 156 kts | 146° |
| 2026-05-06 18:06 | -6.16067 | -78.43459 | 9531 ft | 157 kts | 145° |
| 2026-05-06 18:07 | -6.16942 | -78.42838 | 9579 ft | 154 kts | 141° |
| 2026-05-06 18:07 | -6.17908 | -78.42333 | 9494 ft | 159 kts | 157° |
| 2026-05-06 18:07 | -6.18975 | -78.42040 | 9551 ft | 158 kts | 159° |
| 2026-05-06 18:07 | -6.19978 | -78.41583 | 9553 ft | 160 kts | 143° |
| 2026-05-06 18:08 | -6.20886 | -78.40940 | 9538 ft | 157 kts | 141° |
| 2026-05-06 18:08 | -6.21762 | -78.40313 | 9573 ft | 153 kts | 142° |
| 2026-05-06 18:08 | -6.22669 | -78.39728 | 9529 ft | 156 kts | 144° |
| 2026-05-06 18:08 | -6.23611 | -78.39184 | 9561 ft | 156 kts | 148° |
| 2026-05-06 18:09 | -6.24566 | -78.38674 | 9575 ft | 157 kts | 149° |
| 2026-05-06 18:09 | -6.25544 | -78.38195 | 9560 ft | 158 kts | 150° |
| 2026-05-06 18:09 | -6.26463 | -78.37723 | 9583 ft | 132 kts | 148° |
| 2026-05-06 18:09 | -6.27190 | -78.37357 | 9586 ft | 108 kts | 149° |
| 2026-05-06 18:10 | -6.27868 | -78.37035 | 9517 ft | 108 kts | 152° |
| 2026-05-06 18:10 | -6.28582 | -78.36737 | 9585 ft | 115 kts | 153° |
| 2026-05-06 18:10 | -6.29328 | -78.36409 | 9713 ft | 123 kts | 150° |
| 2026-05-06 18:10 | -6.30119 | -78.35939 | 9705 ft | 137 kts | 141° |
| 2026-05-06 18:11 | -6.30897 | -78.35362 | 9737 ft | 144 kts | 141° |
| 2026-05-06 18:11 | -6.31775 | -78.34733 | 9554 ft | 162 kts | 141° |
| 2026-05-06 18:11 | -6.32674 | -78.34044 | 9547 ft | 163 kts | 140° |
| 2026-05-06 18:11 | -6.33564 | -78.33345 | 9558 ft | 161 kts | 140° |
| 2026-05-06 18:12 | -6.34414 | -78.32618 | 9534 ft | 163 kts | 134° |
| 2026-05-06 18:12 | -6.35212 | -78.31826 | 9529 ft | 162 kts | 133° |
| 2026-05-06 18:12 | -6.35990 | -78.31010 | 9550 ft | 160 kts | 130° |
| 2026-05-06 18:12 | -6.36739 | -78.30187 | 9585 ft | 160 kts | 130° |
| 2026-05-06 18:13 | -6.37439 | -78.29310 | 9489 ft | 164 kts | 125° |
| 2026-05-06 18:13 | -6.38095 | -78.28392 | 9529 ft | 160 kts | 123° |
| 2026-05-06 18:13 | -6.38755 | -78.27500 | 9469 ft | 158 kts | 125° |
| 2026-05-06 18:13 | -6.39462 | -78.26655 | 9468 ft | 154 kts | 131° |
| 2026-05-06 18:14 | -6.40216 | -78.25904 | 9528 ft | 154 kts | 133° |
| 2026-05-06 18:14 | -6.40983 | -78.25151 | 9506 ft | 153 kts | 131° |
| 2026-05-06 18:14 | -6.41713 | -78.24379 | 9546 ft | 154 kts | 130° |
| 2026-05-06 18:14 | -6.42456 | -78.23589 | 9554 ft | 156 kts | 131° |
| 2026-05-06 18:15 | -6.43249 | -78.22850 | 9592 ft | 156 kts | 137° |
| 2026-05-06 18:15 | -6.44092 | -78.22149 | 9644 ft | 154 kts | 139° |
| 2026-05-06 18:15 | -6.44917 | -78.21475 | 9605 ft | 158 kts | 140° |
| 2026-05-06 18:15 | -6.45810 | -78.20817 | 9629 ft | 156 kts | 143° |
| 2026-05-06 18:16 | -6.46719 | -78.20223 | 9605 ft | 159 kts | 144° |
| 2026-05-06 18:16 | -6.47637 | -78.19585 | 9535 ft | 163 kts | 142° |
| 2026-05-06 18:16 | -6.48579 | -78.18948 | 9538 ft | 163 kts | 143° |
| 2026-05-06 18:16 | -6.49568 | -78.18376 | 9559 ft | 162 kts | 148° |
| 2026-05-06 18:17 | -6.50542 | -78.17813 | 9578 ft | 161 kts | 148° |
| 2026-05-06 18:17 | -6.51519 | -78.17271 | 9563 ft | 163 kts | 150° |
| 2026-05-06 18:17 | -6.52519 | -78.16731 | 9566 ft | 163 kts | 150° |
| 2026-05-06 18:17 | -6.53537 | -78.16214 | 9575 ft | 163 kts | 152° |
| 2026-05-06 18:18 | -6.54541 | -78.15714 | 9486 ft | 163 kts | 150° |
| 2026-05-06 18:18 | -6.55551 | -78.15123 | 9124 ft | 174 kts | 147° |
| 2026-05-06 18:18 | -6.56580 | -78.14465 | 8861 ft | 173 kts | 145° |
| 2026-05-06 18:18 | -6.57547 | -78.13827 | 8851 ft | 164 kts | 144° |
| 2026-05-06 18:19 | -6.58496 | -78.13186 | 8700 ft | 165 kts | 145° |
| 2026-05-06 18:19 | -6.59453 | -78.12576 | 8697 ft | 160 kts | 146° |
| 2026-05-06 18:19 | -6.60387 | -78.11970 | 8688 ft | 159 kts | 145° |
| 2026-05-06 18:19 | -6.61319 | -78.11362 | 8692 ft | 159 kts | 144° |
| 2026-05-06 18:20 | -6.62244 | -78.10764 | 8700 ft | 160 kts | 144° |
| 2026-05-06 18:20 | -6.63178 | -78.10145 | 8713 ft | 161 kts | 144° |
| 2026-05-06 18:20 | -6.64117 | -78.09527 | 8710 ft | 162 kts | 145° |
| 2026-05-06 18:20 | -6.65069 | -78.08917 | 8708 ft | 162 kts | 146° |
| 2026-05-06 18:21 | -6.65984 | -78.08253 | 8705 ft | 162 kts | 140° |
| 2026-05-06 18:21 | -6.66881 | -78.07565 | 8704 ft | 162 kts | 141° |
| 2026-05-06 18:21 | -6.67766 | -78.06880 | 8702 ft | 162 kts | 140° |
| 2026-05-06 18:21 | -6.68657 | -78.06174 | 8695 ft | 163 kts | 139° |
| 2026-05-06 18:22 | -6.69566 | -78.05495 | 8698 ft | 163 kts | 148° |
| 2026-05-06 18:22 | -6.70611 | -78.05043 | 8705 ft | 163 kts | 160° |
| 2026-05-06 18:22 | -6.71695 | -78.04748 | 8696 ft | 164 kts | 164° |
| 2026-05-06 18:22 | -6.72804 | -78.04482 | 8706 ft | 163 kts | 163° |
| 2026-05-06 18:23 | -6.73914 | -78.04217 | 8693 ft | 165 kts | 165° |
| 2026-05-06 18:23 | -6.75035 | -78.03948 | 8698 ft | 165 kts | 164° |
| 2026-05-06 18:23 | -6.75778 | -78.03775 | 8706 ft | 166 kts | 164° |
| 2026-05-06 18:23 | -6.76908 | -78.03528 | 8700 ft | 167 kts | 165° |
| 2026-05-06 18:24 | -6.78034 | -78.03265 | 8699 ft | 165 kts | 164° |
| 2026-05-06 18:24 | -6.79157 | -78.03010 | 8694 ft | 164 kts | 163° |
| 2026-05-06 18:24 | -6.80274 | -78.02755 | 8695 ft | 165 kts | 165° |
| 2026-05-06 18:24 | -6.81393 | -78.02495 | 8704 ft | 165 kts | 163° |
| 2026-05-06 18:25 | -6.82509 | -78.02229 | 8702 ft | 165 kts | 165° |
| 2026-05-06 18:25 | -6.83619 | -78.01962 | 8697 ft | 165 kts | 165° |
| 2026-05-06 18:25 | -6.84741 | -78.01708 | 8689 ft | 164 kts | 164° |
| 2026-05-06 18:25 | -6.85854 | -78.01445 | 8698 ft | 164 kts | 163° |
| 2026-05-06 18:26 | -6.86964 | -78.01171 | 8697 ft | 165 kts | 166° |
| 2026-05-06 18:26 | -6.88087 | -78.00899 | 8701 ft | 166 kts | 165° |
| 2026-05-06 18:26 | -6.89197 | -78.00625 | 8695 ft | 166 kts | 163° |
| 2026-05-06 18:26 | -6.90323 | -78.00354 | 8705 ft | 166 kts | 165° |
| 2026-05-06 18:27 | -6.91456 | -78.00083 | 8695 ft | 167 kts | 165° |
| 2026-05-06 18:27 | -6.92585 | -77.99807 | 8696 ft | 167 kts | 165° |
| 2026-05-06 18:27 | -6.93712 | -77.99529 | 8690 ft | 166 kts | 163° |
| 2026-05-06 18:27 | -6.94804 | -77.99180 | 8695 ft | 167 kts | 157° |
| 2026-05-06 18:28 | -6.95888 | -77.98745 | 8697 ft | 168 kts | 156° |
| 2026-05-06 18:28 | -6.96974 | -77.98314 | 8698 ft | 167 kts | 156° |
| 2026-05-06 18:28 | -6.98054 | -77.97863 | 8697 ft | 168 kts | 157° |
| 2026-05-06 18:28 | -6.99146 | -77.97432 | 8687 ft | 168 kts | 158° |
| 2026-05-06 18:29 | -7.00231 | -77.97009 | 8693 ft | 166 kts | 156° |
| 2026-05-06 18:29 | -7.01293 | -77.96577 | 8686 ft | 165 kts | 155° |
| 2026-05-06 18:29 | -7.02347 | -77.96137 | 8690 ft | 165 kts | 158° |
| 2026-05-06 18:29 | -7.03415 | -77.95715 | 8700 ft | 163 kts | 157° |
| 2026-05-06 18:30 | -7.04471 | -77.95287 | 8698 ft | 164 kts | 157° |
| 2026-05-06 18:30 | -7.05527 | -77.94865 | 8692 ft | 163 kts | 156° |
| 2026-05-06 18:30 | -7.06575 | -77.94417 | 8689 ft | 164 kts | 156° |
| 2026-05-06 18:30 | -7.07635 | -77.93987 | 8702 ft | 165 kts | 156° |
| 2026-05-06 18:31 | -7.08689 | -77.93560 | 8693 ft | 166 kts | 157° |
| 2026-05-06 18:31 | -7.09758 | -77.93144 | 8690 ft | 164 kts | 158° |
| 2026-05-06 18:31 | -7.10815 | -77.92712 | 8687 ft | 163 kts | 156° |
| 2026-05-06 18:31 | -7.11871 | -77.92294 | 8688 ft | 163 kts | 158° |
| 2026-05-06 18:32 | -7.12926 | -77.91886 | 8685 ft | 164 kts | 157° |
| 2026-05-06 18:32 | -7.13998 | -77.91457 | 8684 ft | 164 kts | 156° |
| 2026-05-06 18:32 | -7.15052 | -77.91026 | 8681 ft | 164 kts | 157° |
| 2026-05-06 18:32 | -7.16117 | -77.90611 | 8669 ft | 164 kts | 157° |
| 2026-05-06 18:33 | -7.17172 | -77.90182 | 8698 ft | 162 kts | 157° |
| 2026-05-06 18:33 | -7.18229 | -77.89766 | 8701 ft | 163 kts | 155° |
| 2026-05-06 18:33 | -7.19264 | -77.89302 | 8697 ft | 162 kts | 154° |
| 2026-05-06 18:33 | -7.20268 | -77.88828 | 8834 ft | 149 kts | 151° |
| 2026-05-06 18:34 | -7.21143 | -77.88395 | 9080 ft | 137 kts | 152° |
| 2026-05-06 18:34 | -7.21990 | -77.87979 | 9247 ft | 136 kts | 153° |
| 2026-05-06 18:34 | -7.22835 | -77.87567 | 9441 ft | 135 kts | 151° |
| 2026-05-06 18:34 | -7.23703 | -77.87153 | 9543 ft | 142 kts | 153° |
| 2026-05-06 18:35 | -7.24634 | -77.86701 | 9520 ft | 154 kts | 152° |
| 2026-05-06 18:35 | -7.25618 | -77.86221 | 9510 ft | 160 kts | 151° |
| 2026-05-06 18:35 | -7.26622 | -77.85736 | 9519 ft | 160 kts | 153° |
| 2026-05-06 18:35 | -7.27623 | -77.85247 | 9526 ft | 161 kts | 151° |
| 2026-05-06 18:36 | -7.28628 | -77.84747 | 9524 ft | 162 kts | 152° |
| 2026-05-06 18:36 | -7.29647 | -77.84260 | 9526 ft | 162 kts | 154° |
| 2026-05-06 18:36 | -7.30658 | -77.83776 | 9524 ft | 163 kts | 151° |
| 2026-05-06 18:36 | -7.31690 | -77.83269 | 9524 ft | 165 kts | 151° |
| 2026-05-06 18:37 | -7.32717 | -77.82770 | 9519 ft | 163 kts | 153° |
| 2026-05-06 18:37 | -7.33733 | -77.82279 | 9517 ft | 161 kts | 153° |
| 2026-05-06 18:37 | -7.34751 | -77.81776 | 9514 ft | 162 kts | 152° |
| 2026-05-06 18:37 | -7.35770 | -77.81281 | 9516 ft | 163 kts | 153° |
| 2026-05-06 18:38 | -7.36797 | -77.80771 | 9522 ft | 165 kts | 150° |
| 2026-05-06 18:38 | -7.37810 | -77.80241 | 9517 ft | 164 kts | 152° |
| 2026-05-06 18:38 | -7.38841 | -77.79739 | 9519 ft | 164 kts | 151° |
| 2026-05-06 18:38 | -7.39885 | -77.79233 | 9511 ft | 167 kts | 151° |
| 2026-05-06 18:39 | -7.40917 | -77.78724 | 9517 ft | 164 kts | 152° |
| 2026-05-06 18:39 | -7.41942 | -77.78205 | 9516 ft | 165 kts | 150° |
| 2026-05-06 18:39 | -7.42965 | -77.77700 | 9516 ft | 166 kts | 151° |
| 2026-05-06 18:40 | -7.45035 | -77.76676 | 9517 ft | 164 kts | 153° |
| 2026-05-06 18:40 | -7.46061 | -77.76163 | 9515 ft | 164 kts | 151° |
| 2026-05-06 18:40 | -7.47097 | -77.75664 | 9518 ft | 165 kts | 154° |
| 2026-05-06 18:40 | -7.48167 | -77.75234 | 9518 ft | 166 kts | 156° |
| 2026-05-06 18:41 | -7.49251 | -77.74830 | 9523 ft | 166 kts | 157° |
| 2026-05-06 18:41 | -7.50337 | -77.74442 | 9524 ft | 165 kts | 158° |
| 2026-05-06 18:41 | -7.51401 | -77.74055 | 9528 ft | 164 kts | 158° |
| 2026-05-06 18:41 | -7.52485 | -77.73670 | 9532 ft | 165 kts | 158° |
| 2026-05-06 18:42 | -7.53577 | -77.73307 | 9531 ft | 165 kts | 160° |
| 2026-05-06 18:42 | -7.54675 | -77.72961 | 9536 ft | 165 kts | 160° |
| 2026-05-06 18:42 | -7.55767 | -77.72606 | 9533 ft | 165 kts | 160° |
| 2026-05-06 18:42 | -7.56853 | -77.72252 | 9533 ft | 164 kts | 160° |
| 2026-05-06 18:43 | -7.57938 | -77.71903 | 9531 ft | 163 kts | 159° |
| 2026-05-06 18:43 | -7.59026 | -77.71556 | 9534 ft | 164 kts | 160° |
| 2026-05-06 18:43 | -7.60124 | -77.71211 | 9523 ft | 165 kts | 160° |
| 2026-05-06 18:43 | -7.61201 | -77.70863 | 9529 ft | 164 kts | 160° |
| 2026-05-06 18:44 | -7.62283 | -77.70493 | 9530 ft | 164 kts | 159° |
| 2026-05-06 18:44 | -7.63367 | -77.70129 | 9530 ft | 165 kts | 160° |
| 2026-05-06 18:44 | -7.64468 | -77.69794 | 9522 ft | 164 kts | 161° |
| 2026-05-06 18:44 | -7.65564 | -77.69437 | 9531 ft | 166 kts | 159° |
| 2026-05-06 18:45 | -7.66658 | -77.69068 | 9530 ft | 166 kts | 159° |
| 2026-05-06 18:45 | -7.67762 | -77.68728 | 9527 ft | 166 kts | 160° |
| 2026-05-06 18:45 | -7.68859 | -77.68378 | 9534 ft | 165 kts | 160° |
| 2026-05-06 18:45 | -7.69942 | -77.68025 | 9533 ft | 165 kts | 160° |
| 2026-05-06 18:46 | -7.71031 | -77.67670 | 9535 ft | 164 kts | 160° |
| 2026-05-06 18:46 | -7.72130 | -77.67325 | 9538 ft | 165 kts | 160° |
| 2026-05-06 18:46 | -7.73223 | -77.66968 | 9541 ft | 166 kts | 159° |
| 2026-05-06 18:46 | -7.74319 | -77.66617 | 9545 ft | 165 kts | 160° |
| 2026-05-06 18:47 | -7.75417 | -77.66275 | 9541 ft | 165 kts | 160° |
| 2026-05-06 18:47 | -7.76494 | -77.65938 | 9541 ft | 164 kts | 160° |
| 2026-05-06 18:47 | -7.77584 | -77.65595 | 9551 ft | 165 kts | 159° |
| 2026-05-06 18:47 | -7.78668 | -77.65259 | 9555 ft | 161 kts | 159° |
| 2026-05-06 18:48 | -7.79746 | -77.64937 | 9557 ft | 160 kts | 163° |
| 2026-05-06 18:48 | -7.80838 | -77.64659 | 9549 ft | 163 kts | 162° |
| 2026-05-06 18:48 | -7.81932 | -77.64374 | 9560 ft | 162 kts | 165° |
| 2026-05-06 18:48 | -7.83030 | -77.64098 | 9558 ft | 162 kts | 163° |
| 2026-05-06 18:49 | -7.84128 | -77.63823 | 9568 ft | 164 kts | 164° |
| 2026-05-06 18:49 | -7.85237 | -77.63556 | 9572 ft | 163 kts | 161° |
| 2026-05-06 18:49 | -7.86335 | -77.63316 | 9573 ft | 164 kts | 172° |
| 2026-05-06 18:49 | -7.87488 | -77.63324 | 9566 ft | 167 kts | 183° |
| 2026-05-06 18:50 | -7.88646 | -77.63443 | 9572 ft | 168 kts | 185° |
| 2026-05-06 18:50 | -7.89803 | -77.63599 | 9574 ft | 168 kts | 186° |
| 2026-05-06 18:50 | -7.90965 | -77.63768 | 9579 ft | 168 kts | 186° |
| 2026-05-06 18:50 | -7.92132 | -77.63929 | 9573 ft | 169 kts | 186° |
| 2026-05-06 18:51 | -7.93289 | -77.64082 | 9579 ft | 168 kts | 186° |
| 2026-05-06 18:51 | -7.94440 | -77.64255 | 9576 ft | 165 kts | 187° |
| 2026-05-06 18:51 | -7.95583 | -77.64434 | 9574 ft | 166 kts | 188° |
| 2026-05-06 18:51 | -7.96726 | -77.64612 | 9580 ft | 167 kts | 186° |
| 2026-05-06 18:52 | -7.97879 | -77.64776 | 9581 ft | 168 kts | 187° |
| 2026-05-06 18:52 | -7.99038 | -77.64939 | 9584 ft | 168 kts | 186° |
| 2026-05-06 18:52 | -8.00204 | -77.65115 | 9583 ft | 169 kts | 186° |
| 2026-05-06 18:52 | -8.01367 | -77.65274 | 9582 ft | 169 kts | 185° |
| 2026-05-06 18:53 | -8.02538 | -77.65317 | 9592 ft | 168 kts | 176° |
| 2026-05-06 18:53 | -8.03704 | -77.65208 | 9591 ft | 167 kts | 171° |
| 2026-05-06 18:53 | -8.04836 | -77.65044 | 9592 ft | 167 kts | 167° |
| 2026-05-06 18:53 | -8.05938 | -77.64694 | 9588 ft | 163 kts | 158° |
| 2026-05-06 18:54 | -8.06980 | -77.64289 | 9594 ft | 161 kts | 157° |
| 2026-05-06 18:54 | -8.08046 | -77.63891 | 9589 ft | 164 kts | 158° |
| 2026-05-06 18:54 | -8.09113 | -77.63471 | 9607 ft | 166 kts | 156° |
| 2026-05-06 18:54 | -8.10184 | -77.63050 | 9606 ft | 164 kts | 156° |
| 2026-05-06 18:55 | -8.11213 | -77.62564 | 9606 ft | 162 kts | 148° |
| 2026-05-06 18:55 | -8.12160 | -77.61981 | 9603 ft | 159 kts | 146° |
| 2026-05-06 18:55 | -8.13102 | -77.61417 | 9603 ft | 157 kts | 146° |
| 2026-05-06 18:55 | -8.13969 | -77.60732 | 9612 ft | 159 kts | 136° |
| 2026-05-06 18:56 | -8.14772 | -77.59962 | 9617 ft | 159 kts | 135° |
| 2026-05-06 18:56 | -8.15570 | -77.59203 | 9618 ft | 160 kts | 134° |
| 2026-05-06 18:56 | -8.16384 | -77.58427 | 9614 ft | 159 kts | 135° |
| 2026-05-06 18:56 | -8.17238 | -77.57735 | 9610 ft | 160 kts | 149° |
| 2026-05-06 18:57 | -8.18309 | -77.57413 | 9615 ft | 163 kts | 172° |
| 2026-05-06 18:57 | -8.19457 | -77.57351 | 9612 ft | 165 kts | 178° |
| 2026-05-06 18:57 | -8.20614 | -77.57381 | 9617 ft | 166 kts | 179° |
| 2026-05-06 18:57 | -8.21754 | -77.57242 | 9614 ft | 168 kts | 156° |
| 2026-05-06 18:58 | -8.22615 | -77.56497 | 9623 ft | 167 kts | 126° |
| 2026-05-06 18:58 | -8.23311 | -77.55567 | 9617 ft | 163 kts | 124° |
| 2026-05-06 18:58 | -8.23985 | -77.54661 | 9617 ft | 160 kts | 125° |
| 2026-05-06 18:58 | -8.24654 | -77.53754 | 9618 ft | 161 kts | 126° |
| 2026-05-06 18:59 | -8.25357 | -77.52879 | 9617 ft | 162 kts | 127° |
| 2026-05-06 18:59 | -8.26098 | -77.52021 | 9623 ft | 163 kts | 129° |
| 2026-05-06 18:59 | -8.26851 | -77.51168 | 9627 ft | 162 kts | 134° |
| 2026-05-06 18:59 | -8.27689 | -77.50410 | 9624 ft | 163 kts | 138° |
| 2026-05-06 19:00 | -8.28614 | -77.49730 | 9630 ft | 163 kts | 144° |
| 2026-05-06 19:00 | -8.29599 | -77.49154 | 9630 ft | 163 kts | 150° |
| 2026-05-06 19:00 | -8.30596 | -77.48635 | 9627 ft | 163 kts | 151° |
| 2026-05-06 19:00 | -8.31269 | -77.48285 | 9627 ft | 163 kts | 149° |
| 2026-05-06 19:01 | -8.32614 | -77.47566 | 9632 ft | 163 kts | 150° |
| 2026-05-06 19:01 | -8.33617 | -77.47033 | 9634 ft | 164 kts | 149° |
| 2026-05-06 19:01 | -8.34634 | -77.46510 | 9638 ft | 164 kts | 154° |
| 2026-05-06 19:01 | -8.35670 | -77.46045 | 9637 ft | 166 kts | 153° |
| 2026-05-06 19:02 | -8.36722 | -77.45558 | 9635 ft | 165 kts | 153° |
| 2026-05-06 19:02 | -8.37771 | -77.45076 | 9634 ft | 165 kts | 155° |
| 2026-05-06 19:02 | -8.38829 | -77.44627 | 9642 ft | 165 kts | 155° |
| 2026-05-06 19:02 | -8.39920 | -77.44238 | 9638 ft | 167 kts | 159° |
| 2026-05-06 19:03 | -8.40998 | -77.43818 | 9642 ft | 166 kts | 152° |
| 2026-05-06 19:03 | -8.41969 | -77.43213 | 9641 ft | 166 kts | 142° |
| 2026-05-06 19:03 | -8.42909 | -77.42523 | 9645 ft | 164 kts | 140° |
| 2026-05-06 19:03 | -8.43781 | -77.41797 | 9644 ft | 165 kts | 138° |
| 2026-05-06 19:04 | -8.44763 | -77.41185 | 9647 ft | 167 kts | 152° |
| 2026-05-06 19:04 | -8.45849 | -77.40772 | 9649 ft | 167 kts | 159° |
| 2026-05-06 19:04 | -8.46955 | -77.40383 | 9649 ft | 169 kts | 158° |
| 2026-05-06 19:04 | -8.48006 | -77.39898 | 9639 ft | 167 kts | 147° |
| 2026-05-06 19:05 | -8.48863 | -77.39158 | 9647 ft | 161 kts | 133° |
| 2026-05-06 19:05 | -8.49643 | -77.38343 | 9649 ft | 159 kts | 130° |
| 2026-05-06 19:05 | -8.50368 | -77.37499 | 9655 ft | 159 kts | 127° |
| 2026-05-06 19:05 | -8.51026 | -77.36591 | 9655 ft | 161 kts | 122° |
| 2026-05-06 19:06 | -8.51627 | -77.35651 | 9654 ft | 159 kts | 121° |
| 2026-05-06 19:06 | -8.52205 | -77.34696 | 9653 ft | 159 kts | 118° |
| 2026-05-06 19:06 | -8.52747 | -77.33738 | 9657 ft | 158 kts | 118° |
| 2026-05-06 19:06 | -8.53334 | -77.32767 | 9654 ft | 161 kts | 124° |
| 2026-05-06 19:07 | -8.54066 | -77.31926 | 9651 ft | 160 kts | 137° |
| 2026-05-06 19:07 | -8.54650 | -77.31476 | 9650 ft | 159 kts | 143° |
| 2026-05-06 19:07 | -8.55933 | -77.30766 | 9643 ft | 158 kts | 152° |
| 2026-05-06 19:07 | -8.56928 | -77.30304 | 9652 ft | 158 kts | 155° |
| 2026-05-06 19:08 | -8.57969 | -77.29933 | 9655 ft | 160 kts | 159° |
| 2026-05-06 19:08 | -8.59038 | -77.29598 | 9668 ft | 162 kts | 160° |
| 2026-05-06 19:08 | -8.59752 | -77.29364 | 9664 ft | 164 kts | 159° |
| 2026-05-06 19:08 | -8.60847 | -77.29002 | 9659 ft | 167 kts | 159° |
| 2026-05-06 19:09 | -8.61932 | -77.28641 | 9640 ft | 163 kts | 160° |
| 2026-05-06 19:09 | -8.63023 | -77.28310 | 9657 ft | 161 kts | 161° |
| 2026-05-06 19:09 | -8.64059 | -77.27908 | 9644 ft | 157 kts | 149° |
| 2026-05-06 19:09 | -8.65009 | -77.27382 | 9652 ft | 160 kts | 149° |
| 2026-05-06 19:10 | -8.66010 | -77.26895 | 9664 ft | 160 kts | 155° |
| 2026-05-06 19:10 | -8.67065 | -77.26500 | 9664 ft | 162 kts | 158° |
| 2026-05-06 19:10 | -8.68138 | -77.26096 | 9664 ft | 166 kts | 157° |
| 2026-05-06 19:10 | -8.69230 | -77.25690 | 9662 ft | 169 kts | 158° |
| 2026-05-06 19:11 | -8.70337 | -77.25276 | 9660 ft | 170 kts | 157° |
| 2026-05-06 19:11 | -8.71423 | -77.24808 | 9660 ft | 170 kts | 152° |
| 2026-05-06 19:11 | -8.72493 | -77.24322 | 9655 ft | 168 kts | 155° |
| 2026-05-06 19:11 | -8.73539 | -77.23854 | 9656 ft | 164 kts | 153° |
| 2026-05-06 19:12 | -8.74580 | -77.23382 | 9652 ft | 164 kts | 153° |
| 2026-05-06 19:12 | -8.75632 | -77.22914 | 9660 ft | 165 kts | 153° |
| 2026-05-06 19:12 | -8.76671 | -77.22420 | 9658 ft | 164 kts | 153° |
| 2026-05-06 19:12 | -8.77712 | -77.21958 | 9662 ft | 164 kts | 154° |
| 2026-05-06 19:13 | -8.78759 | -77.21504 | 9665 ft | 163 kts | 154° |
| 2026-05-06 19:13 | -8.79810 | -77.21047 | 9663 ft | 165 kts | 154° |
| 2026-05-06 19:13 | -8.80859 | -77.20582 | 9667 ft | 166 kts | 154° |
| 2026-05-06 19:13 | -8.81922 | -77.20095 | 9666 ft | 168 kts | 153° |
| 2026-05-06 19:14 | -8.82988 | -77.19619 | 9664 ft | 167 kts | 154° |
| 2026-05-06 19:14 | -8.84053 | -77.19154 | 9671 ft | 167 kts | 155° |
| 2026-05-06 19:14 | -8.85124 | -77.18672 | 9670 ft | 169 kts | 154° |
| 2026-05-06 19:14 | -8.86182 | -77.18199 | 9669 ft | 167 kts | 154° |
| 2026-05-06 19:15 | -8.87250 | -77.17718 | 9668 ft | 168 kts | 154° |
| 2026-05-06 19:15 | -8.88314 | -77.17241 | 9669 ft | 168 kts | 154° |
| 2026-05-06 19:15 | -8.89386 | -77.16768 | 9669 ft | 168 kts | 155° |
| 2026-05-06 19:15 | -8.90458 | -77.16296 | 9668 ft | 168 kts | 154° |
| 2026-05-06 19:16 | -8.91465 | -77.15708 | 9672 ft | 167 kts | 139° |
| 2026-05-06 19:16 | -8.92330 | -77.14929 | 9671 ft | 166 kts | 135° |
| 2026-05-06 19:16 | -8.93172 | -77.14148 | 9677 ft | 166 kts | 135° |
| 2026-05-06 19:16 | -8.94014 | -77.13349 | 9678 ft | 165 kts | 134° |
| 2026-05-06 19:17 | -8.94794 | -77.12506 | 9674 ft | 164 kts | 129° |
| 2026-05-06 19:17 | -8.95530 | -77.11631 | 9676 ft | 163 kts | 129° |
| 2026-05-06 19:17 | -8.96234 | -77.10736 | 9676 ft | 162 kts | 125° |
| 2026-05-06 19:17 | -8.96881 | -77.09807 | 9676 ft | 160 kts | 123° |
| 2026-05-06 19:18 | -8.97525 | -77.08885 | 9678 ft | 161 kts | 124° |
| 2026-05-06 19:18 | -8.98171 | -77.07952 | 9677 ft | 162 kts | 118° |
| 2026-05-06 19:18 | -8.98677 | -77.06955 | 9671 ft | 156 kts | 115° |
| 2026-05-06 19:18 | -8.99160 | -77.05958 | 9678 ft | 159 kts | 115° |
| 2026-05-06 19:19 | -8.99720 | -77.05002 | 9682 ft | 157 kts | 123° |
| 2026-05-06 19:19 | -9.00403 | -77.04149 | 9680 ft | 159 kts | 128° |
| 2026-05-06 19:19 | -9.01118 | -77.03285 | 9679 ft | 161 kts | 129° |
| 2026-05-06 19:19 | -9.01863 | -77.02455 | 9679 ft | 157 kts | 131° |
| 2026-05-06 19:20 | -9.02627 | -77.01669 | 9680 ft | 156 kts | 133° |
| 2026-05-06 19:20 | -9.03397 | -77.00874 | 9682 ft | 160 kts | 132° |
| 2026-05-06 19:20 | -9.04152 | -77.00044 | 9683 ft | 160 kts | 128° |
| 2026-05-06 19:20 | -9.04843 | -76.99183 | 9680 ft | 159 kts | 128° |
| 2026-05-06 19:21 | -9.05536 | -76.98307 | 9680 ft | 161 kts | 122° |
| 2026-05-06 19:21 | -9.06088 | -76.97347 | 9681 ft | 156 kts | 118° |
| 2026-05-06 19:21 | -9.06600 | -76.96361 | 9680 ft | 159 kts | 115° |
| 2026-05-06 19:21 | -9.07012 | -76.95326 | 9682 ft | 160 kts | 103° |
| 2026-05-06 19:22 | -9.07176 | -76.94212 | 9679 ft | 159 kts | 95° |
| 2026-05-06 19:22 | -9.07295 | -76.93102 | 9682 ft | 160 kts | 96° |
| 2026-05-06 19:22 | -9.07644 | -76.92035 | 9682 ft | 162 kts | 121° |
| 2026-05-06 19:22 | -9.08339 | -76.91125 | 9681 ft | 164 kts | 133° |
| 2026-05-06 19:23 | -9.09110 | -76.90284 | 9680 ft | 162 kts | 126° |
| 2026-05-06 19:23 | -9.09765 | -76.89388 | 9674 ft | 161 kts | 127° |
| 2026-05-06 19:23 | -9.10470 | -76.88503 | 9680 ft | 161 kts | 127° |
| 2026-05-06 19:23 | -9.11075 | -76.87549 | 9686 ft | 162 kts | 112° |
| 2026-05-06 19:24 | -9.11415 | -76.86461 | 9678 ft | 161 kts | 104° |
| 2026-05-06 19:24 | -9.11694 | -76.85357 | 9673 ft | 162 kts | 103° |
| 2026-05-06 19:24 | -9.11965 | -76.84236 | 9681 ft | 164 kts | 106° |
| 2026-05-06 19:24 | -9.12328 | -76.83154 | 9677 ft | 164 kts | 109° |
| 2026-05-06 19:25 | -9.12710 | -76.82054 | 9677 ft | 166 kts | 108° |
| 2026-05-06 19:25 | -9.13112 | -76.80966 | 9677 ft | 162 kts | 111° |
| 2026-05-06 19:25 | -9.13604 | -76.79938 | 9670 ft | 163 kts | 120° |
| 2026-05-06 19:25 | -9.14248 | -76.78997 | 9675 ft | 163 kts | 126° |
| 2026-05-06 19:26 | -9.14971 | -76.78112 | 9675 ft | 165 kts | 133° |
| 2026-05-06 19:26 | -9.15851 | -76.77353 | 9674 ft | 168 kts | 140° |
| 2026-05-06 19:26 | -9.16782 | -76.76627 | 9578 ft | 172 kts | 142° |
| 2026-05-06 19:26 | -9.17724 | -76.75953 | 9663 ft | 153 kts | 139° |
| 2026-05-06 19:27 | -9.18412 | -76.75307 | 10080 ft | 127 kts | 135° |
| 2026-05-06 19:27 | -9.19039 | -76.74699 | 10216 ft | 122 kts | 134° |
| 2026-05-06 19:27 | -9.19700 | -76.74158 | 10355 ft | 123 kts | 144° |
| 2026-05-06 19:27 | -9.20418 | -76.73760 | 10600 ft | 119 kts | 153° |
| 2026-05-06 19:28 | -9.21220 | -76.73482 | 10795 ft | 124 kts | 162° |
| 2026-05-06 19:28 | -9.22059 | -76.73293 | 11092 ft | 119 kts | 163° |
| 2026-05-06 19:28 | -9.22858 | -76.73095 | 11349 ft | 121 kts | 163° |
| 2026-05-06 19:28 | -9.23707 | -76.72971 | 11545 ft | 128 kts | 170° |
| 2026-05-06 19:29 | -9.24600 | -76.72977 | 11680 ft | 128 kts | 180° |
| 2026-05-06 19:29 | -9.25484 | -76.73172 | 11817 ft | 131 kts | 189° |
| 2026-05-06 19:29 | -9.26389 | -76.73352 | 11949 ft | 132 kts | 189° |
| 2026-05-06 19:29 | -9.27288 | -76.73508 | 12135 ft | 131 kts | 174° |
| 2026-05-06 19:30 | -9.28055 | -76.73064 | 12227 ft | 134 kts | 121° |
| 2026-05-06 19:30 | -9.28421 | -76.72252 | 12487 ft | 122 kts | 114° |
| 2026-05-06 19:30 | -9.28872 | -76.71486 | 12599 ft | 133 kts | 124° |
| 2026-05-06 19:30 | -9.29490 | -76.70730 | 12628 ft | 145 kts | 130° |
| 2026-05-06 19:31 | -9.30183 | -76.69923 | 12564 ft | 158 kts | 130° |
| 2026-05-06 19:31 | -9.30888 | -76.69025 | 12475 ft | 163 kts | 123° |
| 2026-05-06 19:31 | -9.31930 | -76.67047 | 12516 ft | 158 kts | 118° |
| 2026-05-06 19:32 | -9.32497 | -76.66095 | 12502 ft | 158 kts | 120° |
| 2026-05-06 19:32 | -9.33054 | -76.65131 | 12520 ft | 158 kts | 120° |
| 2026-05-06 19:32 | -9.33622 | -76.64186 | 12537 ft | 157 kts | 120° |
| 2026-05-06 19:32 | -9.34143 | -76.63216 | 12527 ft | 156 kts | 112° |
| 2026-05-06 19:33 | -9.34532 | -76.62195 | 12522 ft | 156 kts | 107° |
| 2026-05-06 19:33 | -9.34567 | -76.61097 | 12444 ft | 159 kts | 78° |
| 2026-05-06 19:33 | -9.34286 | -76.60014 | 12403 ft | 161 kts | 72° |
| 2026-05-06 19:33 | -9.33900 | -76.58956 | 12333 ft | 158 kts | 70° |
| 2026-05-06 19:34 | -9.33530 | -76.57916 | 12241 ft | 156 kts | 71° |
| 2026-05-06 19:34 | -9.33175 | -76.56877 | 12019 ft | 157 kts | 70° |
| 2026-05-06 19:34 | -9.32832 | -76.55822 | 11750 ft | 158 kts | 70° |
| 2026-05-06 19:34 | -9.32475 | -76.54779 | 11541 ft | 155 kts | 71° |
| 2026-05-06 19:35 | -9.32153 | -76.53750 | 11313 ft | 155 kts | 73° |
| 2026-05-06 19:35 | -9.31853 | -76.52685 | 11085 ft | 154 kts | 74° |
| 2026-05-06 19:35 | -9.31560 | -76.51656 | 10904 ft | 153 kts | 73° |
| 2026-05-06 19:35 | -9.31271 | -76.50620 | 10706 ft | 152 kts | 74° |
| 2026-05-06 19:36 | -9.30997 | -76.49589 | 10516 ft | 150 kts | 73° |
| 2026-05-06 19:36 | -9.30714 | -76.48573 | 10306 ft | 150 kts | 73° |
| 2026-05-06 19:36 | -9.30434 | -76.47561 | 10095 ft | 148 kts | 74° |
| 2026-05-06 19:36 | -9.30166 | -76.46557 | 9907 ft | 147 kts | 74° |
| 2026-05-06 19:37 | -9.29901 | -76.45551 | 9681 ft | 148 kts | 73° |
| 2026-05-06 19:37 | -9.29636 | -76.44551 | 9487 ft | 147 kts | 75° |
| 2026-05-06 19:37 | -9.29370 | -76.43538 | 9488 ft | 149 kts | 74° |
| 2026-05-06 19:37 | -9.29181 | -76.42870 | 9480 ft | 150 kts | 73° |
| 2026-05-06 19:38 | -9.28691 | -76.41535 | 9463 ft | 152 kts | 66° |
| 2026-05-06 19:38 | -9.28237 | -76.40573 | 9450 ft | 153 kts | 62° |
| 2026-05-06 19:38 | -9.27737 | -76.39610 | 9444 ft | 154 kts | 62° |
| 2026-05-06 19:38 | -9.27239 | -76.38651 | 9436 ft | 154 kts | 63° |
| 2026-05-06 19:39 | -9.26747 | -76.37686 | 9442 ft | 154 kts | 63° |
| 2026-05-06 19:39 | -9.26249 | -76.36718 | 9444 ft | 155 kts | 63° |
| 2026-05-06 19:39 | -9.25741 | -76.35747 | 9429 ft | 155 kts | 61° |
| 2026-05-06 19:39 | -9.25241 | -76.34811 | 9457 ft | 151 kts | 62° |
| 2026-05-06 19:40 | -9.24745 | -76.33844 | 9186 ft | 162 kts | 63° |
| 2026-05-06 19:40 | -9.24231 | -76.32847 | 9092 ft | 156 kts | 60° |
| 2026-05-06 19:40 | -9.23698 | -76.31864 | 8828 ft | 159 kts | 62° |
| 2026-05-06 19:40 | -9.23199 | -76.30881 | 8653 ft | 155 kts | 62° |
| 2026-05-06 19:41 | -9.22703 | -76.29906 | 8392 ft | 157 kts | 61° |
| 2026-05-06 19:41 | -9.22203 | -76.28947 | 8169 ft | 155 kts | 62° |
| 2026-05-06 19:41 | -9.21706 | -76.27981 | 7917 ft | 155 kts | 61° |
| 2026-05-06 19:41 | -9.21336 | -76.26957 | 7572 ft | 160 kts | 82° |
| 2026-05-06 19:42 | -9.21249 | -76.25841 | 7373 ft | 154 kts | 86° |
| 2026-05-06 19:42 | -9.21197 | -76.24779 | 7161 ft | 152 kts | 84° |
| 2026-05-06 19:42 | -9.21122 | -76.23689 | 6876 ft | 155 kts | 84° |
| 2026-05-06 19:42 | -9.21049 | -76.22632 | 6597 ft | 149 kts | 86° |
| 2026-05-06 19:43 | -9.20995 | -76.21563 | 6162 ft | 154 kts | 86° |
| 2026-05-06 19:43 | -9.20931 | -76.20492 | 5836 ft | 150 kts | 86° |
| 2026-05-06 19:43 | -9.20871 | -76.19453 | 5419 ft | 150 kts | 87° |
| 2026-05-06 19:43 | -9.20827 | -76.18385 | 4999 ft | 151 kts | 84° |
| 2026-05-06 19:44 | -9.20760 | -76.17329 | 4627 ft | 150 kts | 85° |
| 2026-05-06 19:44 | -9.20693 | -76.16275 | 4235 ft | 149 kts | 86° |
| 2026-05-06 19:44 | -9.20638 | -76.15238 | 3862 ft | 149 kts | 85° |
| 2026-05-06 19:44 | -9.20583 | -76.14195 | 3492 ft | 148 kts | 86° |
| 2026-05-06 19:45 | -9.20571 | -76.13207 | 3405 ft | 129 kts | 89° |
| 2026-05-06 19:45 | -9.20591 | -76.12373 | 3424 ft | 112 kts | 92° |
| 2026-05-06 19:45 | -9.20707 | -76.11643 | 3473 ft | 100 kts | 99° |
| 2026-05-06 19:45 | -9.20857 | -76.10969 | 3476 ft | 97 kts | 102° |
| 2026-05-06 19:46 | -9.20863 | -76.10329 | 3502 ft | 88 kts | 68° |
| 2026-05-06 19:46 | -9.20482 | -76.09881 | 3525 ft | 82 kts | 30° |
| 2026-05-06 19:46 | -9.19974 | -76.09602 | 3517 ft | 83 kts | 28° |
| 2026-05-06 19:46 | -9.19476 | -76.09313 | 3520 ft | 84 kts | 33° |
| 2026-05-06 19:47 | -9.19006 | -76.08961 | 3530 ft | 83 kts | 37° |
| 2026-05-06 19:47 | -9.18534 | -76.08610 | 3521 ft | 85 kts | 37° |
| 2026-05-06 19:47 | -9.18080 | -76.08237 | 3529 ft | 84 kts | 40° |
| 2026-05-06 19:47 | -9.17685 | -76.07799 | 3517 ft | 85 kts | 49° |
| 2026-05-06 19:48 | -9.17238 | -76.07407 | 3517 ft | 85 kts | 26° |
| 2026-05-06 19:48 | -9.16679 | -76.07243 | 3567 ft | 83 kts | 12° |
| 2026-05-06 19:48 | -9.16113 | -76.07093 | 3575 ft | 85 kts | 16° |
| 2026-05-06 19:48 | -9.15533 | -76.06947 | 3586 ft | 86 kts | 11° |
| 2026-05-06 19:49 | -9.14946 | -76.06820 | 3574 ft | 87 kts | 13° |
| 2026-05-06 19:49 | -9.14356 | -76.06727 | 3573 ft | 86 kts | 4° |
| 2026-05-06 19:49 | -9.13757 | -76.06702 | 3572 ft | 87 kts | 2° |
| 2026-05-06 19:49 | -9.13150 | -76.06673 | 3581 ft | 88 kts | 4° |
| 2026-05-06 19:50 | -9.12546 | -76.06608 | 3613 ft | 88 kts | 8° |
| 2026-05-06 19:50 | -9.11952 | -76.06490 | 3660 ft | 86 kts | 14° |
| 2026-05-06 19:50 | -9.11384 | -76.06280 | 3691 ft | 87 kts | 27° |
| 2026-05-06 19:50 | -9.10844 | -76.06021 | 3719 ft | 85 kts | 23° |
| 2026-05-06 19:51 | -9.10419 | -76.05579 | 3728 ft | 96 kts | 70° |
| 2026-05-06 19:51 | -9.10355 | -76.04859 | 3740 ft | 108 kts | 88° |
| 2026-05-06 19:51 | -9.10355 | -76.04058 | 3702 ft | 119 kts | 92° |
| 2026-05-06 19:51 | -9.10519 | -76.03222 | 3699 ft | 123 kts | 108° |
| 2026-05-06 19:52 | -9.10875 | -76.02426 | 3708 ft | 124 kts | 123° |
| 2026-05-06 19:52 | -9.11452 | -76.01842 | 3677 ft | 114 kts | 138° |
| 2026-05-06 19:52 | -9.12045 | -76.01342 | 3619 ft | 108 kts | 141° |
| 2026-05-06 19:52 | -9.12636 | -76.00927 | 3537 ft | 97 kts | 149° |
| 2026-05-06 19:53 | -9.13217 | -76.00622 | 3394 ft | 90 kts | 152° |
| 2026-05-06 19:53 | -9.13761 | -76.00357 | 3297 ft | 85 kts | 154° |
| 2026-05-06 19:53 | -9.14296 | -76.00119 | 3201 ft | 84 kts | 156° |
| 2026-05-06 19:53 | -9.14847 | -75.99932 | 3094 ft | 83 kts | 163° |
| 2026-05-06 19:54 | -9.15412 | -75.99806 | 3034 ft | 82 kts | 168° |
| 2026-05-06 19:54 | -9.15986 | -75.99725 | 3032 ft | 82 kts | 172° |
| 2026-05-06 19:54 | -9.16560 | -75.99652 | 3062 ft | 84 kts | 170° |
| 2026-05-06 19:54 | -9.16944 | -75.99594 | 3058 ft | 83 kts | 168° |
| 2026-05-06 19:55 | -9.17696 | -75.99451 | 3106 ft | 82 kts | 170° |
| 2026-05-06 19:55 | -9.18282 | -75.99406 | 3118 ft | 87 kts | 175° |
| 2026-05-06 19:55 | -9.18682 | -75.99384 | 3141 ft | 85 kts | 174° |
| 2026-05-06 19:55 | -9.19460 | -75.99355 | 3131 ft | 84 kts | 176° |
| 2026-05-06 19:56 | -9.19853 | -75.99346 | 3119 ft | 84 kts | 181° |
| 2026-05-06 19:56 | -9.20430 | -75.99412 | 3093 ft | 84 kts | 185° |
| 2026-05-06 19:56 | -9.21012 | -75.99451 | 3064 ft | 83 kts | 181° |
| 2026-05-06 19:56 | -9.21587 | -75.99489 | 3034 ft | 86 kts | 182° |
| 2026-05-06 19:57 | -9.22182 | -75.99567 | 2990 ft | 86 kts | 191° |
| 2026-05-06 19:57 | -9.22753 | -75.99694 | 2986 ft | 84 kts | 189° |
| 2026-05-06 19:57 | -9.23342 | -75.99815 | 2926 ft | 88 kts | 191° |
| 2026-05-06 19:57 | -9.23933 | -75.99936 | 2927 ft | 84 kts | 189° |
| 2026-05-06 19:58 | -9.24497 | -76.00037 | 2831 ft | 81 kts | 187° |
| 2026-05-06 19:58 | -9.25045 | -76.00110 | 2757 ft | 79 kts | 188° |
| 2026-05-06 19:58 | -9.25594 | -76.00163 | 2708 ft | 80 kts | 187° |
| 2026-05-06 19:58 | -9.26132 | -76.00224 | 2614 ft | 78 kts | 187° |
| 2026-05-06 19:59 | -9.26673 | -76.00278 | 2522 ft | 78 kts | 187° |
| 2026-05-06 19:59 | -9.27219 | -76.00332 | 2404 ft | 78 kts | 188° |
| 2026-05-06 19:59 | -9.27765 | -76.00389 | 2293 ft | 79 kts | 187° |
| 2026-05-06 19:59 | -9.28304 | -76.00442 | 2179 ft | 76 kts | 188° |
| 2026-05-06 20:00 | -9.28805 | -76.00489 | 2111 ft | 65 kts | 188° |
| 2026-05-06 20:00 | -9.29217 | -76.00530 | 2110 ft | 71 kts | 187° |
| 2026-05-06 20:00 | -9.29524 | -76.00552 | 2110 ft | 21 kts | 163° |
| 2026-05-06 20:00 | -9.29593 | -76.00526 | 2111 ft | 5 kts | 158° |
| 2026-05-06 20:01 | -9.29614 | -76.00498 | 2111 ft | 1 kts | 101° |
| 2026-05-06 20:01 | -9.29601 | -76.00475 | 2111 ft | 7 kts | 27° |
| 2026-05-06 20:01 | -9.29541 | -76.00474 | 2110 ft | 11 kts | 2° |
| 2026-05-06 20:01 | -9.29502 | -76.00460 | 2110 ft | 5 kts | 82° |
| 2026-05-06 20:02 | -9.29509 | -76.00457 | 2110 ft | 0 kts | 276° |